Time;durP1;ratioP1;P1;durP2;ratioP2;P2;SDS_P1;SDS_P2;PMS_P1;PMS_P2;Temp;Humidity;BMP_temperature;BMP_pressure;BME280_temperature;BME280_humidity;BME280_pressure;Samples;Min_cycle;Max_cycle;Signal;HPM_P1;HPM_P2
2023/09/12 00:00:37;;;;;;;;;;;25.20;1.00;;;;;;4954914;29;19933;-66
2023/09/12 00:03:04;;;;;;;;;;;25.20;1.00;;;;;;4954809;29;19926;-66
2023/09/12 00:05:30;;;;;;;;;;;25.20;1.00;;;;;;4954863;29;19942;-66
2023/09/12 00:07:57;;;;;;;;;;;25.20;1.00;;;;;;4954364;28;20042;-66
2023/09/12 00:10:24;;;;;;;;;;;25.20;1.00;;;;;;4954296;28;19930;-66
2023/09/12 00:12:51;;;;;;;;;;;25.30;1.00;;;;;;4955105;28;20294;-66
2023/09/12 00:15:19;;;;;;;;;;;25.30;1.00;;;;;;4955033;29;19933;-66
2023/09/12 00:17:48;;;;;;;;;;;25.20;1.00;;;;;;4953866;28;19926;-66
2023/09/12 00:20:15;;;;;;;;;;;25.20;1.00;;;;;;4954626;29;19930;-66
2023/09/12 00:22:42;;;;;;;;;;;25.20;1.00;;;;;;4955075;29;19974;-66
2023/09/12 00:25:09;;;;;;;;;;;25.20;1.00;;;;;;4954396;29;19927;-66
2023/09/12 00:27:35;;;;;;;;;;;25.20;1.00;;;;;;4954290;28;19926;-66
2023/09/12 00:30:02;;;;;;;;;;;25.20;1.00;;;;;;4953226;29;19933;-66
2023/09/12 00:32:29;;;;;;;;;;;25.20;1.00;;;;;;4953202;29;19969;-66
2023/09/12 00:34:56;;;;;;;;;;;25.20;1.00;;;;;;4953298;29;20326;-66
2023/09/12 00:37:23;;;;;;;;;;;25.20;1.00;;;;;;4954047;28;20350;-66
2023/09/12 00:39:51;;;;;;;;;;;25.20;1.00;;;;;;4953070;29;19936;-66
2023/09/12 00:42:18;;;;;;;;;;;25.20;1.00;;;;;;4953132;29;20025;-66
2023/09/12 00:44:45;;;;;;;;;;;25.20;1.00;;;;;;4943377;29;20050;-66
2023/09/12 00:47:13;;;;;;;;;;;25.20;1.00;;;;;;4949870;28;19933;-66
2023/09/12 00:49:40;;;;;;;;;;;25.20;1.00;;;;;;4953101;29;19927;-66
2023/09/12 00:52:07;;;;;;;;;;;25.20;1.00;;;;;;4953021;29;19927;-66
2023/09/12 00:54:34;;;;;;;;;;;25.20;1.00;;;;;;4945162;29;19930;-66
2023/09/12 00:57:01;;;;;;;;;;;25.20;1.00;;;;;;4945755;29;19926;-66
2023/09/12 00:59:29;;;;;;;;;;;25.20;1.00;;;;;;4954144;28;19962;-66
2023/09/12 01:01:56;;;;;;;;;;;25.20;1.00;;;;;;4952851;29;19931;-66
2023/09/12 01:04:23;;;;;;;;;;;25.20;1.00;;;;;;4953975;29;19926;-66
2023/09/12 01:07:02;;;;;;;;;;;25.20;1.00;;;;;;4944454;29;19931;-66
2023/09/12 01:09:29;;;;;;;;;;;25.20;1.00;;;;;;4952812;29;19958;-66
2023/09/12 01:11:56;;;;;;;;;;;25.20;1.00;;;;;;4947596;29;20001;-66
2023/09/12 01:14:23;;;;;;;;;;;25.20;1.00;;;;;;4946333;29;19986;-66
2023/09/12 01:16:49;;;;;;;;;;;25.10;1.00;;;;;;4952313;28;19927;-66
2023/09/12 01:19:18;;;;;;;;;;;25.10;1.00;;;;;;4952639;29;19969;-66
2023/09/12 01:22:03;;;;;;;;;;;25.10;1.00;;;;;;4954280;28;20437;-66
2023/09/12 01:24:39;;;;;;;;;;;25.10;1.00;;;;;;4948780;29;19927;-66
2023/09/12 01:27:12;;;;;;;;;;;25.10;1.00;;;;;;4957579;28;19926;-66
2023/09/12 01:29:39;;;;;;;;;;;25.10;1.00;;;;;;4956461;29;19977;-66
2023/09/12 01:32:06;;;;;;;;;;;25.10;1.00;;;;;;4957564;29;20326;-66
2023/09/12 01:34:32;;;;;;;;;;;25.10;1.00;;;;;;4957761;29;19933;-66
2023/09/12 01:36:59;;;;;;;;;;;25.10;1.00;;;;;;4957273;28;19927;-66
2023/09/12 01:39:26;;;;;;;;;;;25.10;1.00;;;;;;4957292;29;20386;-66
2023/09/12 01:41:54;;;;;;;;;;;25.10;1.00;;;;;;4956346;29;19930;-66
2023/09/12 01:44:24;;;;;;;;;;;25.10;1.00;;;;;;4956140;29;19935;-66
2023/09/12 01:46:53;;;;;;;;;;;25.10;1.00;;;;;;4945949;29;19926;-66
2023/09/12 01:49:22;;;;;;;;;;;25.10;1.00;;;;;;4957433;29;20394;-66
2023/09/12 01:51:49;;;;;;;;;;;25.10;1.00;;;;;;4957408;28;19931;-66
2023/09/12 01:54:16;;;;;;;;;;;25.10;1.00;;;;;;4956046;29;19958;-66
2023/09/12 01:56:44;;;;;;;;;;;25.10;1.00;;;;;;4948330;29;19933;-66
2023/09/12 01:59:11;;;;;;;;;;;25.10;1.00;;;;;;4957273;28;19938;-66
2023/09/12 02:01:38;;;;;;;;;;;25.10;1.00;;;;;;4938444;29;19933;-66
2023/09/12 02:04:08;;;;;;;;;;;25.10;1.00;;;;;;4938273;29;19934;-66
2023/09/12 02:06:35;;;;;;;;;;;25.10;1.00;;;;;;4954787;28;19974;-64
2023/09/12 02:09:02;;;;;;;;;;;25.10;1.00;;;;;;4952720;29;19927;-64
2023/09/12 02:11:29;;;;;;;;;;;25.10;1.00;;;;;;4954197;29;19926;-65
2023/09/12 02:13:56;;;;;;;;;;;25.10;1.00;;;;;;4945548;29;20010;-65
2023/09/12 02:16:22;;;;;;;;;;;25.10;1.00;;;;;;4956514;28;19927;-65
2023/09/12 02:18:50;;;;;;;;;;;25.00;1.00;;;;;;4955495;29;19969;-65
2023/09/12 02:21:16;;;;;;;;;;;25.00;1.00;;;;;;4956633;29;19927;-65
2023/09/12 02:23:43;;;;;;;;;;;25.00;1.00;;;;;;4955532;29;19926;-65
2023/09/12 02:26:11;;;;;;;;;;;25.00;1.00;;;;;;4956313;28;19926;-65
2023/09/12 02:28:38;;;;;;;;;;;25.00;1.00;;;;;;4956545;29;19934;-66
2023/09/12 02:31:11;;;;;;;;;;;25.00;1.00;;;;;;4955341;29;19927;-66
2023/09/12 02:33:39;;;;;;;;;;;25.00;1.00;;;;;;4932945;29;19927;-66
2023/09/12 02:36:06;;;;;;;;;;;25.00;1.00;;;;;;4956381;28;19926;-66
2023/09/12 02:38:33;;;;;;;;;;;25.00;1.00;;;;;;4956371;28;19948;-65
2023/09/12 02:41:00;;;;;;;;;;;25.00;1.00;;;;;;4955240;29;19926;-64
2023/09/12 02:43:26;;;;;;;;;;;25.00;1.00;;;;;;4956357;28;20276;-65
2023/09/12 02:45:53;;;;;;;;;;;25.00;1.00;;;;;;4956206;28;19933;-65
2023/09/12 02:48:20;;;;;;;;;;;25.00;1.00;;;;;;4954853;29;19926;-65
2023/09/12 02:50:47;;;;;;;;;;;25.00;1.00;;;;;;4955079;29;19927;-65
2023/09/12 02:53:13;;;;;;;;;;;25.00;1.00;;;;;;4946950;29;19927;-65
2023/09/12 02:55:41;;;;;;;;;;;25.00;1.00;;;;;;4954701;29;19927;-65
2023/09/12 02:58:09;;;;;;;;;;;25.00;1.00;;;;;;4955931;28;19927;-65
2023/09/12 03:00:42;;;;;;;;;;;25.00;1.00;;;;;;4954618;29;19927;-65
2023/09/12 03:03:10;;;;;;;;;;;25.00;1.00;;;;;;4956101;29;20367;-65
2023/09/12 03:05:37;;;;;;;;;;;25.00;1.00;;;;;;4954522;29;20283;-65
2023/09/12 03:08:04;;;;;;;;;;;25.00;1.00;;;;;;4941038;29;19950;-65
2023/09/12 03:10:31;;;;;;;;;;;25.00;1.00;;;;;;4954543;29;19926;-65
2023/09/12 03:12:58;;;;;;;;;;;25.00;1.00;;;;;;4954849;29;19926;-65
2023/09/12 03:15:25;;;;;;;;;;;25.00;1.00;;;;;;4955775;28;20334;-65
2023/09/12 03:17:51;;;;;;;;;;;24.90;1.00;;;;;;4939206;29;20312;-65
2023/09/12 03:20:18;;;;;;;;;;;24.90;1.00;;;;;;4942038;29;20279;-65
2023/09/12 03:22:45;;;;;;;;;;;24.90;1.00;;;;;;4955577;29;19927;-65
2023/09/12 03:25:12;;;;;;;;;;;25.00;1.00;;;;;;4946555;29;19930;-64
2023/09/12 03:27:39;;;;;;;;;;;24.90;1.00;;;;;;4954037;28;19933;-65
2023/09/12 03:30:06;;;;;;;;;;;24.90;1.00;;;;;;4954283;29;19934;-65
2023/09/12 03:32:33;;;;;;;;;;;24.90;1.00;;;;;;4955570;28;20302;-65
2023/09/12 03:35:00;;;;;;;;;;;24.90;1.00;;;;;;4955476;29;19931;-65
2023/09/12 03:37:28;;;;;;;;;;;24.90;1.00;;;;;;4953697;28;19926;-65
2023/09/12 03:39:55;;;;;;;;;;;24.90;1.00;;;;;;4954051;29;19949;-64
2023/09/12 03:42:22;;;;;;;;;;;24.90;1.00;;;;;;4953993;29;20441;-64
2023/09/12 03:44:53;;;;;;;;;;;24.90;1.00;;;;;;4953788;28;20306;-64
2023/09/12 03:47:20;;;;;;;;;;;24.90;1.00;;;;;;4953375;28;19932;-64
2023/09/12 03:49:46;;;;;;;;;;;24.90;1.00;;;;;;4953938;29;19926;-65
2023/09/12 03:52:13;;;;;;;;;;;24.90;1.00;;;;;;4950600;29;19930;-65
2023/09/12 03:54:41;;;;;;;;;;;24.90;1.00;;;;;;4952616;29;19926;-65
2023/09/12 03:57:08;;;;;;;;;;;24.90;1.00;;;;;;4952653;28;19926;-65
2023/09/12 03:59:35;;;;;;;;;;;24.90;1.00;;;;;;4945598;29;19942;-66
2023/09/12 04:02:03;;;;;;;;;;;24.90;1.00;;;;;;4953542;29;20025;-66
2023/09/12 04:04:30;;;;;;;;;;;24.80;1.00;;;;;;4953946;29;20290;-65
2023/09/12 04:06:56;;;;;;;;;;;24.90;1.00;;;;;;4953380;28;19926;-65
2023/09/12 04:09:23;;;;;;;;;;;24.80;1.00;;;;;;4948351;29;19927;-65
2023/09/12 04:11:50;;;;;;;;;;;24.90;1.00;;;;;;4954619;29;19927;-64
2023/09/12 04:14:17;;;;;;;;;;;24.90;1.00;;;;;;4954492;29;19953;-65
2023/09/12 04:16:44;;;;;;;;;;;24.80;1.00;;;;;;4953022;28;19953;-64
2023/09/12 04:19:10;;;;;;;;;;;24.80;1.00;;;;;;4954672;28;20298;-64
2023/09/12 04:21:37;;;;;;;;;;;24.80;1.00;;;;;;4945411;29;19933;-64
2023/09/12 04:24:05;;;;;;;;;;;24.80;1.00;;;;;;4942763;29;19927;-64
2023/09/12 04:26:31;;;;;;;;;;;24.80;1.00;;;;;;4937109;29;19948;-63
2023/09/12 04:28:58;;;;;;;;;;;24.80;1.00;;;;;;4937509;29;19927;-63
2023/09/12 04:31:25;;;;;;;;;;;24.80;1.00;;;;;;4936510;29;19926;-63
2023/09/12 04:33:52;;;;;;;;;;;24.80;1.00;;;;;;4937452;29;19937;-63
2023/09/12 04:36:19;;;;;;;;;;;24.80;1.00;;;;;;4954367;28;19932;-63
2023/09/12 04:38:46;;;;;;;;;;;24.80;1.00;;;;;;4937278;29;19927;-63
2023/09/12 04:41:16;;;;;;;;;;;24.80;1.00;;;;;;4937415;29;19931;-63
2023/09/12 04:43:46;;;;;;;;;;;24.70;1.00;;;;;;4937147;29;20347;-63
2023/09/12 04:46:13;;;;;;;;;;;24.80;1.00;;;;;;4936945;29;19934;-64
2023/09/12 04:48:40;;;;;;;;;;;24.70;1.00;;;;;;4937160;29;19932;-64
2023/09/12 04:51:10;;;;;;;;;;;24.70;1.00;;;;;;4936941;29;20075;-64
2023/09/12 04:53:36;;;;;;;;;;;24.70;1.00;;;;;;4937173;29;19927;-64
2023/09/12 04:56:06;;;;;;;;;;;24.70;1.00;;;;;;4936812;28;19970;-64
2023/09/12 04:58:32;;;;;;;;;;;24.70;1.00;;;;;;4936516;29;20029;-64
2023/09/12 05:00:59;;;;;;;;;;;24.70;1.00;;;;;;4937125;29;19926;-64
2023/09/12 05:03:26;;;;;;;;;;;24.70;1.00;;;;;;4937177;29;19926;-64
2023/09/12 05:05:53;;;;;;;;;;;24.70;1.00;;;;;;4936768;28;19933;-64
2023/09/12 05:08:20;;;;;;;;;;;24.70;1.00;;;;;;4936970;29;19927;-64
2023/09/12 05:10:47;;;;;;;;;;;24.70;1.00;;;;;;4937081;29;20310;-63
2023/09/12 05:13:14;;;;;;;;;;;24.70;1.00;;;;;;4936893;29;19962;-63
2023/09/12 05:15:41;;;;;;;;;;;24.70;1.00;;;;;;4954220;29;20373;-63
2023/09/12 05:18:08;;;;;;;;;;;24.70;1.00;;;;;;4936274;29;19930;-63
2023/09/12 05:20:35;;;;;;;;;;;24.70;1.00;;;;;;4936024;29;19978;-63
2023/09/12 05:23:02;;;;;;;;;;;24.70;1.00;;;;;;4936703;29;19937;-63
2023/09/12 05:25:30;;;;;;;;;;;24.70;1.00;;;;;;4936656;29;19930;-63
2023/09/12 05:27:57;;;;;;;;;;;24.70;1.00;;;;;;4936144;29;20383;-63
2023/09/12 05:30:23;;;;;;;;;;;24.70;1.00;;;;;;4936741;29;19933;-63
2023/09/12 05:32:50;;;;;;;;;;;24.70;1.00;;;;;;4954050;29;19933;-62
2023/09/12 05:35:17;;;;;;;;;;;24.70;1.00;;;;;;4954192;29;19926;-62
2023/09/12 05:37:50;;;;;;;;;;;24.70;1.00;;;;;;4936279;29;19926;-62
2023/09/12 05:40:17;;;;;;;;;;;24.60;1.00;;;;;;4936725;29;19926;-63
2023/09/12 05:42:44;;;;;;;;;;;24.70;1.00;;;;;;4936708;29;19927;-63
2023/09/12 05:45:11;;;;;;;;;;;24.60;1.00;;;;;;4936840;29;19934;-63
2023/09/12 05:47:38;;;;;;;;;;;24.60;1.00;;;;;;4936295;29;20394;-63
2023/09/12 05:50:06;;;;;;;;;;;24.70;1.00;;;;;;4936688;29;19934;-62
2023/09/12 05:52:34;;;;;;;;;;;24.60;1.00;;;;;;4936640;29;19926;-62
2023/09/12 05:55:00;;;;;;;;;;;24.60;1.00;;;;;;4936672;29;20366;-63
2023/09/12 05:57:27;;;;;;;;;;;24.70;1.00;;;;;;4936240;29;20406;-62
2023/09/12 05:59:54;;;;;;;;;;;24.70;1.00;;;;;;4953646;29;20429;-63
2023/09/12 06:02:21;;;;;;;;;;;24.60;1.00;;;;;;4936589;29;19933;-63
2023/09/12 06:04:48;;;;;;;;;;;24.70;1.00;;;;;;4954231;29;20034;-62
2023/09/12 06:07:15;;;;;;;;;;;24.70;1.00;;;;;;4953339;28;19950;-62
2023/09/12 06:09:41;;;;;;;;;;;24.70;1.00;;;;;;4956897;28;19964;-63
2023/09/12 06:12:08;;;;;;;;;;;24.70;1.00;;;;;;4957152;29;19926;-63
2023/09/12 06:14:35;;;;;;;;;;;24.70;1.00;;;;;;4957112;29;19926;-63
2023/09/12 06:17:02;;;;;;;;;;;24.70;1.00;;;;;;4956717;28;19934;-63
2023/09/12 06:19:29;;;;;;;;;;;24.70;1.00;;;;;;4956875;29;19973;-63
2023/09/12 06:21:55;;;;;;;;;;;24.70;1.00;;;;;;4939628;29;20057;-62
2023/09/12 06:24:23;;;;;;;;;;;24.70;1.00;;;;;;4956963;29;19927;-63
2023/09/12 06:26:50;;;;;;;;;;;24.70;1.00;;;;;;4956529;28;19933;-63
2023/09/12 06:29:17;;;;;;;;;;;24.70;1.00;;;;;;4956910;29;19926;-63
2023/09/12 06:31:43;;;;;;;;;;;24.70;1.00;;;;;;4956731;29;19977;-63
2023/09/12 06:34:10;;;;;;;;;;;24.70;1.00;;;;;;4956858;29;19926;-63
2023/09/12 06:36:38;;;;;;;;;;;24.70;1.00;;;;;;4956432;28;20113;-63
2023/09/12 06:39:05;;;;;;;;;;;24.70;1.00;;;;;;4956705;29;20594;-63
2023/09/12 06:41:32;;;;;;;;;;;24.70;1.00;;;;;;4956631;29;20310;-63
2023/09/12 06:44:00;;;;;;;;;;;24.70;1.00;;;;;;4939524;29;19926;-63
2023/09/12 06:46:26;;;;;;;;;;;24.70;1.00;;;;;;4956083;28;19926;-63
2023/09/12 06:48:53;;;;;;;;;;;24.70;1.00;;;;;;4956626;29;19931;-63
2023/09/12 06:51:23;;;;;;;;;;;24.70;1.00;;;;;;4956549;29;19997;-63
2023/09/12 06:53:51;;;;;;;;;;;24.70;1.00;;;;;;4956401;29;19927;-63
2023/09/12 06:56:17;;;;;;;;;;;24.70;1.00;;;;;;4955968;28;19959;-63
2023/09/12 06:58:44;;;;;;;;;;;24.70;1.00;;;;;;4956103;29;20257;-63
2023/09/12 07:01:11;;;;;;;;;;;24.70;1.00;;;;;;4956283;29;19957;-63
2023/09/12 07:03:38;;;;;;;;;;;24.70;1.00;;;;;;4956331;29;19926;-63
2023/09/12 07:06:05;;;;;;;;;;;24.70;1.00;;;;;;4955830;28;20013;-63
2023/09/12 07:08:32;;;;;;;;;;;24.70;1.00;;;;;;4956145;29;19926;-63
2023/09/12 07:11:05;;;;;;;;;;;24.70;1.00;;;;;;4956196;29;19926;-63
2023/09/12 07:13:32;;;;;;;;;;;24.70;1.00;;;;;;4956081;29;19930;-64
2023/09/12 07:16:00;;;;;;;;;;;24.70;1.00;;;;;;4955779;28;19958;-64
2023/09/12 07:18:26;;;;;;;;;;;24.70;1.00;;;;;;4956047;29;19981;-64
2023/09/12 07:21:00;;;;;;;;;;;24.70;1.00;;;;;;4955400;28;20412;-63
2023/09/12 07:23:27;;;;;;;;;;;24.70;1.00;;;;;;4955892;29;19926;-62
2023/09/12 07:25:57;;;;;;;;;;;24.70;1.00;;;;;;4955570;28;20341;-63
2023/09/12 07:28:24;;;;;;;;;;;24.70;1.00;;;;;;4955616;29;19949;-63
2023/09/12 07:30:50;;;;;;;;;;;24.70;1.00;;;;;;4955709;29;19933;-63
2023/09/12 07:33:17;;;;;;;;;;;24.70;1.00;;;;;;4955801;29;19965;-62
2023/09/12 07:35:44;;;;;;;;;;;24.70;1.00;;;;;;4955495;28;19936;-63
2023/09/12 07:38:11;;;;;;;;;;;24.70;1.00;;;;;;4955425;29;20212;-62
2023/09/12 07:40:38;;;;;;;;;;;24.70;1.00;;;;;;4955458;29;19926;-64
2023/09/12 07:43:04;;;;;;;;;;;24.70;1.00;;;;;;4955570;29;19970;-62
2023/09/12 07:45:31;;;;;;;;;;;24.70;1.00;;;;;;4955569;29;19970;-63
2023/09/12 07:48:00;;;;;;;;;;;24.70;1.00;;;;;;4955325;28;20025;-63
2023/09/12 07:50:28;;;;;;;;;;;24.70;1.00;;;;;;4955297;29;19934;-63
2023/09/12 07:52:55;;;;;;;;;;;24.70;1.00;;;;;;4955377;29;20382;-63
2023/09/12 07:55:23;;;;;;;;;;;24.70;1.00;;;;;;4955234;29;19926;-62
2023/09/12 07:57:50;;;;;;;;;;;24.70;1.00;;;;;;4955091;28;20489;-63
2023/09/12 08:00:17;;;;;;;;;;;24.70;1.00;;;;;;4955051;29;20417;-63
2023/09/12 08:02:43;;;;;;;;;;;24.70;1.00;;;;;;4955244;29;19927;-63
2023/09/12 08:05:10;;;;;;;;;;;24.70;1.00;;;;;;4955167;29;19926;-63
2023/09/12 08:07:37;;;;;;;;;;;24.70;1.00;;;;;;4954545;28;19926;-63
2023/09/12 08:10:05;;;;;;;;;;;24.70;1.00;;;;;;4954991;29;20029;-62
2023/09/12 08:12:31;;;;;;;;;;;24.70;1.00;;;;;;4955234;29;19933;-63
2023/09/12 08:14:59;;;;;;;;;;;24.70;1.00;;;;;;4955282;29;20481;-63
2023/09/12 08:17:26;;;;;;;;;;;24.70;1.00;;;;;;4954670;28;19934;-63
2023/09/12 08:19:53;;;;;;;;;;;24.70;1.00;;;;;;4954852;29;20298;-63
2023/09/12 08:22:20;;;;;;;;;;;24.70;1.00;;;;;;4954737;29;19930;-63
2023/09/12 08:24:47;;;;;;;;;;;24.70;1.00;;;;;;4954827;29;19934;-63
2023/09/12 08:27:13;;;;;;;;;;;24.70;1.00;;;;;;4954460;28;20401;-63
2023/09/12 08:29:43;;;;;;;;;;;24.70;1.00;;;;;;4954790;29;19969;-63
2023/09/12 08:32:10;;;;;;;;;;;24.70;1.00;;;;;;4953878;28;19926;-63
2023/09/12 08:34:37;;;;;;;;;;;24.70;1.00;;;;;;4954739;29;19927;-63
2023/09/12 08:37:03;;;;;;;;;;;24.70;1.00;;;;;;4954063;28;19927;-63
2023/09/12 08:39:40;;;;;;;;;;;24.70;1.00;;;;;;4954976;29;20023;-63
2023/09/12 08:42:07;;;;;;;;;;;24.70;1.00;;;;;;4954672;29;19926;-63
2023/09/12 08:44:34;;;;;;;;;;;24.70;1.00;;;;;;4954607;29;20415;-63
2023/09/12 08:47:01;;;;;;;;;;;24.70;1.00;;;;;;4954271;28;19973;-62
2023/09/12 08:49:29;;;;;;;;;;;24.70;1.00;;;;;;4954526;29;20021;-63
2023/09/12 08:51:56;;;;;;;;;;;24.70;1.00;;;;;;4954449;29;20358;-63
2023/09/12 08:54:23;;;;;;;;;;;24.70;1.00;;;;;;4954371;29;19969;-63
2023/09/12 08:56:50;;;;;;;;;;;24.70;1.00;;;;;;4954085;28;19930;-63
2023/09/12 08:59:17;;;;;;;;;;;24.70;1.00;;;;;;4954350;29;19962;-63
2023/09/12 09:01:44;;;;;;;;;;;24.70;1.00;;;;;;4954386;29;19965;-63
2023/09/12 09:04:11;;;;;;;;;;;24.70;1.00;;;;;;4954357;29;19931;-63
2023/09/12 09:06:40;;;;;;;;;;;24.70;1.00;;;;;;4953882;28;19927;-63
2023/09/12 09:09:07;;;;;;;;;;;24.70;1.00;;;;;;4954492;29;19926;-63
2023/09/12 09:11:35;;;;;;;;;;;24.70;1.00;;;;;;4954431;29;20021;-63
2023/09/12 09:14:03;;;;;;;;;;;24.70;1.00;;;;;;4954367;29;19926;-63
2023/09/12 09:16:30;;;;;;;;;;;24.70;1.00;;;;;;4954019;28;20263;-63
2023/09/12 09:18:59;;;;;;;;;;;24.70;1.00;;;;;;4954149;29;19926;-63
2023/09/12 09:21:29;;;;;;;;;;;24.70;1.00;;;;;;4954094;29;19927;-63
2023/09/12 09:24:00;;;;;;;;;;;24.70;1.00;;;;;;4954410;29;20377;-61
2023/09/12 09:26:43;;;;;;;;;;;24.70;1.00;;;;;;4953837;28;20449;-63
2023/09/12 09:29:15;;;;;;;;;;;24.70;1.00;;;;;;4954256;29;19927;-63
2023/09/12 09:31:42;;;;;;;;;;;24.70;1.00;;;;;;4954119;29;20365;-63
2023/09/12 09:34:13;;;;;;;;;;;24.70;1.00;;;;;;4954245;29;20436;-63
2023/09/12 09:36:44;;;;;;;;;;;24.70;1.00;;;;;;4953621;28;19933;-65
2023/09/12 09:39:12;;;;;;;;;;;24.70;1.00;;;;;;4954106;29;19954;-63
2023/09/12 09:41:39;;;;;;;;;;;24.70;1.00;;;;;;4953947;29;19927;-63
2023/09/12 09:44:09;;;;;;;;;;;24.70;1.00;;;;;;4956486;28;19926;-63
2023/09/12 09:46:37;;;;;;;;;;;24.70;1.00;;;;;;4957334;28;19994;-63
2023/09/12 09:49:06;;;;;;;;;;;24.70;1.00;;;;;;4957735;29;20013;-63
2023/09/12 09:51:40;;;;;;;;;;;24.70;1.00;;;;;;4957580;29;20465;-63
2023/09/12 09:54:07;;;;;;;;;;;24.70;1.00;;;;;;4957571;29;20009;-63
2023/09/12 09:56:47;;;;;;;;;;;24.70;1.00;;;;;;4957036;28;19974;-63
2023/09/12 09:59:18;;;;;;;;;;;24.70;1.00;;;;;;4957261;28;19962;-63
2023/09/12 10:01:45;;;;;;;;;;;24.70;1.00;;;;;;4957288;29;19931;-63
2023/09/12 10:04:14;;;;;;;;;;;24.70;1.00;;;;;;4957275;29;20382;-63
2023/09/12 10:06:43;;;;;;;;;;;24.70;1.00;;;;;;4956738;28;20366;-63
2023/09/12 10:09:11;;;;;;;;;;;24.70;1.00;;;;;;4957427;29;19965;-62
2023/09/12 10:11:39;;;;;;;;;;;24.70;1.00;;;;;;4957131;29;20409;-63
2023/09/12 10:14:06;;;;;;;;;;;24.70;1.00;;;;;;4957216;29;20470;-63
2023/09/12 10:16:34;;;;;;;;;;;24.70;1.00;;;;;;4956731;28;20417;-63
2023/09/12 10:19:19;;;;;;;;;;;24.70;1.00;;;;;;4957000;29;19926;-63
2023/09/12 10:21:49;;;;;;;;;;;24.70;1.00;;;;;;4956925;29;19930;-64
2023/09/12 10:24:16;;;;;;;;;;;24.70;1.00;;;;;;4957295;29;19930;-63
2023/09/12 10:26:45;;;;;;;;;;;24.70;1.00;;;;;;4956605;28;20029;-62
2023/09/12 10:29:17;;;;;;;;;;;24.70;1.00;;;;;;4957006;29;19927;-62
2023/09/12 10:31:45;;;;;;;;;;;24.70;1.00;;;;;;4956765;29;19949;-62
2023/09/12 10:34:13;;;;;;;;;;;24.70;1.00;;;;;;4956703;29;19926;-63
2023/09/12 10:36:44;;;;;;;;;;;24.70;1.00;;;;;;4956590;28;20374;-63
2023/09/12 10:39:12;;;;;;;;;;;24.70;1.00;;;;;;4956705;29;19926;-63
2023/09/12 10:41:39;;;;;;;;;;;24.70;1.00;;;;;;4956710;29;19973;-62
2023/09/12 10:44:10;;;;;;;;;;;24.70;1.00;;;;;;4956701;29;19942;-63
2023/09/12 10:46:40;;;;;;;;;;;24.70;1.00;;;;;;4956367;28;20006;-62
2023/09/12 10:49:08;;;;;;;;;;;24.80;1.00;;;;;;4956615;29;19926;-63
2023/09/12 10:51:38;;;;;;;;;;;24.70;1.00;;;;;;4956605;29;19980;-62
2023/09/12 10:54:06;;;;;;;;;;;24.70;1.00;;;;;;4956365;28;19949;-62
2023/09/12 10:56:33;;;;;;;;;;;24.70;1.00;;;;;;4955436;28;20025;-62
2023/09/12 10:59:09;;;;;;;;;;;24.70;1.00;;;;;;4956620;29;20297;-63
2023/09/12 11:01:36;;;;;;;;;;;24.70;1.00;;;;;;4956413;29;20051;-64
2023/09/12 11:04:19;;;;;;;;;;;24.70;1.00;;;;;;4956427;29;19933;-63
2023/09/12 11:06:47;;;;;;;;;;;24.70;1.00;;;;;;4956194;28;19926;-62
2023/09/12 11:09:15;;;;;;;;;;;24.70;1.00;;;;;;4956510;29;19937;-63
2023/09/12 11:11:42;;;;;;;;;;;24.70;1.00;;;;;;4956418;29;19949;-64
2023/09/12 11:14:09;;;;;;;;;;;24.70;1.00;;;;;;4956641;29;19933;-65
2023/09/12 11:16:36;;;;;;;;;;;24.70;1.00;;;;;;4956048;28;19985;-62
2023/09/12 11:19:18;;;;;;;;;;;24.70;1.00;;;;;;4956216;29;19927;-63
2023/09/12 11:21:49;;;;;;;;;;;24.70;1.00;;;;;;4956065;29;19926;-63
2023/09/12 11:24:16;;;;;;;;;;;24.70;1.00;;;;;;4956204;29;19982;-63
2023/09/12 11:26:54;;;;;;;;;;;24.70;1.00;;;;;;4955616;28;20275;-64
2023/09/12 11:29:20;;;;;;;;;;;24.80;1.00;;;;;;4955965;29;19927;-62
2023/09/12 11:31:59;;;;;;;;;;;24.70;1.00;;;;;;4955797;29;20025;-63
2023/09/12 11:34:30;;;;;;;;;;;24.70;1.00;;;;;;4955901;29;20029;-63
2023/09/12 11:37:00;;;;;;;;;;;24.70;1.00;;;;;;4955498;28;19936;-63
2023/09/12 11:39:31;;;;;;;;;;;24.70;1.00;;;;;;4955708;29;19934;-63
2023/09/12 11:41:59;;;;;;;;;;;24.70;1.00;;;;;;4938531;29;19927;-63
2023/09/12 11:44:26;;;;;;;;;;;24.70;1.00;;;;;;4955898;29;20271;-63
2023/09/12 11:46:54;;;;;;;;;;;24.80;1.00;;;;;;4955062;28;19927;-63
2023/09/12 11:49:21;;;;;;;;;;;24.70;1.00;;;;;;4955559;29;19926;-62
2023/09/12 11:51:51;;;;;;;;;;;24.80;1.00;;;;;;4955275;29;19926;-63
2023/09/12 11:54:19;;;;;;;;;;;24.80;1.00;;;;;;4955705;29;19926;-63
2023/09/12 11:56:47;;;;;;;;;;;24.80;1.00;;;;;;4955284;28;20305;-63
2023/09/12 11:59:14;;;;;;;;;;;24.80;1.00;;;;;;4955469;29;20311;-63
2023/09/12 12:01:41;;;;;;;;;;;24.80;1.00;;;;;;4955675;29;19989;-63
2023/09/12 12:04:08;;;;;;;;;;;24.80;1.00;;;;;;4955840;29;19926;-63
2023/09/12 12:06:35;;;;;;;;;;;24.80;1.00;;;;;;4955859;28;20335;-63
2023/09/12 12:09:04;;;;;;;;;;;24.80;1.00;;;;;;4956460;29;20386;-63
2023/09/12 12:11:32;;;;;;;;;;;24.80;1.00;;;;;;4955739;29;19926;-63
2023/09/12 12:14:08;;;;;;;;;;;24.80;1.00;;;;;;4956084;29;20351;-62
2023/09/12 12:16:35;;;;;;;;;;;24.80;1.00;;;;;;4955517;28;19927;-62
2023/09/12 12:19:02;;;;;;;;;;;24.80;1.00;;;;;;4955341;29;20021;-62
2023/09/12 12:21:28;;;;;;;;;;;24.80;1.00;;;;;;4955300;29;19953;-63
2023/09/12 12:24:02;;;;;;;;;;;24.80;1.00;;;;;;4955157;29;19932;-62
2023/09/12 12:26:33;;;;;;;;;;;24.80;1.00;;;;;;4955238;28;20466;-63
2023/09/12 12:29:00;;;;;;;;;;;24.80;1.00;;;;;;4956243;29;19931;-63
2023/09/12 12:31:27;;;;;;;;;;;24.80;1.00;;;;;;4956159;29;20342;-63
2023/09/12 12:33:59;;;;;;;;;;;24.80;1.00;;;;;;4956067;29;19954;-63
2023/09/12 12:36:46;;;;;;;;;;;24.80;1.00;;;;;;4956028;28;20428;-63
2023/09/12 12:39:23;;;;;;;;;;;24.80;1.00;;;;;;4956501;29;19927;-63
2023/09/12 12:41:54;;;;;;;;;;;24.80;1.00;;;;;;4956217;29;19930;-63
2023/09/12 12:44:21;;;;;;;;;;;24.80;1.00;;;;;;4956425;29;19958;-63
2023/09/12 12:46:57;;;;;;;;;;;24.80;1.00;;;;;;4955339;28;20029;-63
2023/09/12 12:49:24;;;;;;;;;;;24.80;1.00;;;;;;4956047;29;19926;-64
2023/09/12 12:51:52;;;;;;;;;;;24.80;1.00;;;;;;4955830;29;19926;-63
2023/09/12 12:54:21;;;;;;;;;;;24.80;1.00;;;;;;4956095;29;19926;-63
2023/09/12 12:56:48;;;;;;;;;;;24.80;1.00;;;;;;4956097;28;19926;-63
2023/09/12 12:59:15;;;;;;;;;;;24.80;1.00;;;;;;4955738;28;19934;-63
2023/09/12 13:01:44;;;;;;;;;;;24.80;1.00;;;;;;4956030;29;19927;-63
2023/09/12 13:04:11;;;;;;;;;;;24.80;1.00;;;;;;4956581;29;19926;-63
2023/09/12 13:06:39;;;;;;;;;;;24.80;1.00;;;;;;4956606;28;20013;-63
2023/09/12 13:09:07;;;;;;;;;;;24.80;1.00;;;;;;4958282;29;19941;-63
2023/09/12 13:11:34;;;;;;;;;;;24.80;1.00;;;;;;4959365;29;19973;-63
2023/09/12 13:14:08;;;;;;;;;;;24.80;1.00;;;;;;4960650;29;19926;-63
2023/09/12 13:16:35;;;;;;;;;;;24.80;1.00;;;;;;4959081;28;20287;-63
2023/09/12 13:19:03;;;;;;;;;;;24.80;1.00;;;;;;4962650;28;19927;-63
2023/09/12 13:21:32;;;;;;;;;;;24.80;1.00;;;;;;4963259;29;19999;-63
2023/09/12 13:23:59;;;;;;;;;;;24.80;1.00;;;;;;4963822;29;19990;-63
2023/09/12 13:26:29;;;;;;;;;;;24.80;1.00;;;;;;4962907;28;20379;-62
2023/09/12 13:28:57;;;;;;;;;;;24.80;1.00;;;;;;4945056;29;19934;-62
2023/09/12 13:31:24;;;;;;;;;;;24.80;1.00;;;;;;4962998;29;20025;-63
2023/09/12 13:33:52;;;;;;;;;;;24.80;1.00;;;;;;4962590;29;19930;-63
2023/09/12 13:36:19;;;;;;;;;;;24.80;1.00;;;;;;4961798;28;20310;-63
2023/09/12 13:38:48;;;;;;;;;;;24.80;1.00;;;;;;4961839;29;20096;-63
2023/09/12 13:41:15;;;;;;;;;;;24.80;1.00;;;;;;4960829;29;19930;-63
2023/09/12 13:43:45;;;;;;;;;;;24.80;1.00;;;;;;4958185;29;20009;-64
2023/09/12 13:46:12;;;;;;;;;;;24.80;1.00;;;;;;4954471;28;19973;-64
2023/09/12 13:48:40;;;;;;;;;;;24.80;1.00;;;;;;4958183;29;19933;-63
2023/09/12 13:51:07;;;;;;;;;;;24.80;1.00;;;;;;4956510;29;19930;-63
2023/09/12 13:53:34;;;;;;;;;;;24.80;1.00;;;;;;4957260;29;19968;-63
2023/09/12 13:56:02;;;;;;;;;;;24.80;1.00;;;;;;4957363;28;19930;-63
2023/09/12 13:58:48;;;;;;;;;;;24.80;1.00;;;;;;4957795;29;20286;-64
2023/09/12 14:01:17;;;;;;;;;;;24.80;1.00;;;;;;4957365;29;19926;-63
2023/09/12 14:03:59;;;;;;;;;;;24.80;1.00;;;;;;4940250;29;19990;-63
2023/09/12 14:06:26;;;;;;;;;;;24.80;1.00;;;;;;4957077;28;20437;-64
2023/09/12 14:08:54;;;;;;;;;;;24.90;1.00;;;;;;4957297;29;19933;-63
2023/09/12 14:11:21;;;;;;;;;;;24.90;1.00;;;;;;4957258;29;19930;-63
2023/09/12 14:14:00;;;;;;;;;;;24.90;1.00;;;;;;4957345;29;19926;-64
2023/09/12 14:16:41;;;;;;;;;;;24.90;1.00;;;;;;4954606;29;19927;-63
2023/09/12 14:19:13;;;;;;;;;;;24.90;1.00;;;;;;4954839;29;19983;-63
2023/09/12 14:21:42;;;;;;;;;;;24.90;1.00;;;;;;4956871;29;19956;-63
2023/09/12 14:24:09;;;;;;;;;;;24.90;1.00;;;;;;4954490;29;19973;-63
2023/09/12 14:26:36;;;;;;;;;;;24.90;1.00;;;;;;4955737;29;19930;-63
2023/09/12 14:29:04;;;;;;;;;;;24.90;1.00;;;;;;4954822;28;19927;-63
2023/09/12 14:31:32;;;;;;;;;;;24.90;1.00;;;;;;4950795;29;19989;-63
2023/09/12 14:33:58;;;;;;;;;;;24.90;1.00;;;;;;4956790;29;19942;-64
2023/09/12 14:36:25;;;;;;;;;;;24.90;1.00;;;;;;4953900;28;20309;-64